ADDS METAR Data INFO
IDs: Format: Raw Decoded Include TAF

Data at: 1951 UTC 14 Aug 2018

KMFV 141935Z AUTO 24006KT 10SM CLR 28/20 A2993 RMK AO2 T02780196
KMFV 141915Z AUTO 25006KT 10SM CLR 28/19 A2993 RMK AO2 T02780190
KMFV 141855Z AUTO 26007KT 10SM CLR 27/20 A2994 RMK AO2 T02720199
KMFV 141835Z AUTO 25007KT 10SM CLR 27/19 A2995 RMK AO2 T02730194
KMFV 141815Z AUTO 25008KT 10SM CLR 27/20 A2996 RMK AO2 T02730195 PNO
KMFV 141755Z AUTO 29010KT 10SM CLR 27/20 A2996 RMK AO2 T02740197 10277 20223
KMFV 141735Z AUTO 29007KT 10SM CLR 27/20 A2997 RMK AO2 T02740197
KMFV 141715Z AUTO 23008KT 10SM CLR 27/20 A2997 RMK AO2 T02740200
KMFV 141655Z AUTO 26007KT 10SM CLR 27/20 A2997 RMK AO2 T02730200
KMFV 141635Z AUTO 25008KT 10SM CLR 27/20 A2998 RMK AO2 T02700198
KMFV 141615Z AUTO 26006KT 10SM CLR 27/20 A2998 RMK AO2 T02700199
KMFV 141555Z AUTO 28008KT 10SM CLR 27/20 A2997 RMK AO2 T02660197
KMFV 141535Z AUTO 28009KT 10SM CLR 26/20 A2997 RMK AO2 T02640201
KMFV 141515Z AUTO 30009KT 10SM CLR 26/20 A2997 RMK AO2 T02640199
KMFV 141455Z AUTO 26010KT 10SM CLR 26/20 A2997 RMK AO2 T02640198
KMFV 141435Z AUTO 25009KT 10SM CLR 26/19 A2997 RMK AO2 T02580194
KMFV 141415Z AUTO 25008KT 10SM CLR 25/20 A2997 RMK AO2 T02540202
KMFV 141355Z AUTO 26007KT 10SM CLR 25/20 A2997 RMK AO2 T02500196
KMFV 141335Z AUTO 28007KT 10SM SCT018 25/21 A2997 RMK AO2 T02490209
KMFV 141315Z AUTO 27007KT 10SM SCT016 25/21 A2997 RMK AO2 T02470208
KMFV 141255Z AUTO 26007KT 10SM SCT014 25/21 A2997 RMK AO2 T02450212
KMFV 141235Z AUTO 26005KT 10SM CLR 24/22 A2996 RMK AO2 T02390215
KMFV 141215Z AUTO 26005KT 10SM CLR 23/21 A2996 RMK AO2 LTG DSNT N T02310212
KMFV 141155Z AUTO 25004KT 10SM CLR 22/21 A2996 RMK AO2 LTG DSNT N 70114 T02210206 10221 20188
KMFV 141135Z AUTO 00000KT 10SM CLR 21/20 A2996 RMK AO2 T02110201
KMFV 141115Z AUTO 17003KT 10SM CLR 20/20 A2997 RMK AO2 T01990195
KMFV 141055Z AUTO 21003KT 10SM CLR 19/19 A2996 RMK AO2 LTG DSNT N AND SE T01930190
KMFV 141035Z AUTO 18004KT 7SM CLR 19/19 A2996 RMK AO2 LTG DSNT N T01900187
KMFV 141015Z AUTO 19005KT 5SM BR CLR 19/19 A2995 RMK AO2 T01900186
KMFV 140955Z AUTO 20004KT 10SM CLR 19/19 A2995 RMK AO2 T01910187
KMFV 140935Z AUTO 22004KT 10SM CLR 19/19 A2995 RMK AO2 LTG DSNT E T01920187
KMFV 140915Z AUTO 18004KT 10SM CLR 19/19 A2994 RMK AO2 T01930186
KMFV 140855Z AUTO 29005KT 10SM CLR 20/19 A2994 RMK AO2 T02010190
KMFV 140835Z AUTO 28006KT 10SM CLR 20/19 A2993 RMK AO2 T01990189
KMFV 140815Z AUTO 27005KT 10SM CLR 20/19 A2993 RMK AO2 T01950190
KMFV 140755Z AUTO 26005KT 10SM CLR 19/19 A2993 RMK AO2 T01940190
KMFV 140735Z AUTO 25003KT 10SM CLR 20/19 A2993 RMK AO2 T01970191
KMFV 140715Z AUTO 25005KT 10SM CLR 20/20 A2993 RMK AO2 T02000195
KMFV 140655Z AUTO 23003KT 10SM CLR 20/19 A2993 RMK AO2 LTG DSNT S T01980194
KMFV 140635Z AUTO 26004KT 10SM CLR 20/20 A2993 RMK AO2 T01960195
KMFV 140615Z AUTO 25003KT 7SM CLR 20/19 A2993 RMK AO2 T01950192
KMFV 140555Z AUTO 00000KT 10SM CLR 20/19 A2992 RMK AO2 60114 T01970194 10251 20191
KMFV 140535Z AUTO 28003KT 10SM CLR 19/19 A2993 RMK AO2 T01930190
KMFV 140515Z AUTO 00000KT 10SM CLR 20/19 A2994 RMK AO2 T01950192
KMFV 140455Z AUTO 00000KT 10SM CLR 20/19 A2994 RMK AO2 LTG DSNT SE T01970193 402850197
KMFV 140435Z AUTO 00000KT 10SM CLR 20/20 A2995 RMK AO2 T01990196
KMFV 140415Z AUTO 29004KT 10SM CLR 20/20 A2995 RMK AO2 T02000195
KMFV 140355Z AUTO 30007KT 10SM CLR 20/19 A2994 RMK AO2 P0001 T01980193
KMFV 140335Z AUTO 15005KT 10SM CLR 20/19 A2994 RMK AO2 P0001 T02000194
KMFV 140315Z AUTO 19004KT 10SM CLR 21/19 A2994 RMK AO2 LTG DSNT E T02050193
KMFV 140255Z AUTO 17005KT 10SM SCT080 20/19 A2995 RMK AO2 LTG DSNT E P0095 60113 T02010194
KMFV 140235Z AUTO 06004KT 10SM VCTS SCT009 SCT017 BKN060 21/20 A2996 RMK AO2 LTG DSNT N THRU SE P0095 T02050196
KMFV 140215Z AUTO 27022G29KT 1 1/4SM +TSRA BKN012 BKN024 OVC050 21/20 A3002 RMK AO2 LTG DSNT ALQS P0058 T02100199
KMFV 140155Z AUTO 16005KT 3SM +TSRA SCT045 BKN075 OVC120 23/21 A2995 RMK AO2 LTG DSNT ALQS P0017 T02310210
KMFV 140135Z AUTO 18006KT 7SM RA SCT060 SCT070 BKN110 25/23 A2996 RMK AO2 LTG DSNT W T02450231
KMFV 140115Z AUTO 16006KT 10SM CLR 24/23 A2996 RMK AO2 LTG DSNT W T02400225
KMFV 140055Z AUTO 17003KT 10SM CLR 24/22 A2995 RMK AO2 T02400221
KMFV 140035Z AUTO 19004KT 10SM CLR 25/23 A2994 RMK AO2 T02450225
KMFV 140015Z AUTO 19004KT 10SM CLR 25/22 A2994 RMK AO2 T02490223
KMFV 132355Z AUTO 19005KT 10SM CLR 25/22 A2994 RMK AO2 T02510224 10285 20251
KMFV 132335Z AUTO 20006KT 10SM CLR 26/22 A2993 RMK AO2 T02610221
KMFV 132315Z AUTO 20005KT 10SM CLR 27/22 A2993 RMK AO2 LTG DSNT W T02670220
KMFV 132255Z AUTO 21004KT 10SM CLR 27/22 A2993 RMK AO2 LTG DSNT W T02720217
KMFV 132235Z AUTO 22004KT 10SM CLR 28/22 A2992 RMK AO2 T02770216
KMFV 132215Z AUTO 25005KT 10SM CLR 28/22 A2992 RMK AO2 T02800215
KMFV 132155Z AUTO 24006KT 10SM CLR 28/21 A2992 RMK AO2 LTG DSNT SE T02810214
KMFV 132135Z AUTO 25004KT 10SM SCT023 28/22 A2993 RMK AO2 T02800222
KMFV 132115Z AUTO 23005KT 10SM SCT023 28/22 A2993 RMK AO2 T02820224
KMFV 132055Z AUTO 21006KT 10SM SCT023 28/22 A2993 RMK AO2 T02790222
KMFV 132035Z AUTO 20005KT 10SM SCT023 27/22 A2993 RMK AO2 T02720221
KMFV 132015Z AUTO 21004KT 10SM BKN021 28/23 A2994 RMK AO2 T02770225
KMFV 131955Z AUTO 22004KT 10SM SCT021 28/23 A2994 RMK AO2 T02830227
KMFV 131935Z AUTO 23007KT 10SM SCT028 28/22 A2995 RMK AO2 T02820220
KMFV 131915Z AUTO 23005KT 10SM SCT028 28/22 A2995 RMK AO2 T02770217
KMFV 131855Z AUTO 26008KT 10SM SCT026 28/21 A2996 RMK AO2 T02820214
KMFV 131835Z AUTO 26008KT 10SM BKN026 28/22 A2996 RMK AO2 T02780216
KMFV 131815Z AUTO 25007KT 10SM SCT026 28/22 A2997 RMK AO2 T02820222
KMFV 131755Z AUTO 26010KT 10SM SCT026 28/22 A2998 RMK AO2 T02770220 10281 20246
KMFV 131735Z AUTO 26007KT 10SM SCT026 28/22 A2998 RMK AO2 T02770221
KMFV 131715Z AUTO 26005KT 10SM BKN026 27/22 A2999 RMK AO2 T02660216
KMFV 131655Z AUTO 25006KT 10SM SCT024 27/22 A2998 RMK AO2 T02700219
KMFV 131635Z AUTO 26007KT 10SM SCT024 27/22 A2999 RMK AO2 LTG DSNT NW T02740218
KMFV 131615Z AUTO 24008KT 10SM BKN024 28/22 A2999 RMK AO2 T02750221
KMFV 131555Z AUTO 25009KT 10SM BKN022 27/22 A3000 RMK AO2 T02680219
KMFV 131535Z AUTO 26008KT 10SM BKN022 27/22 A3000 RMK AO2 T02740220
KMFV 131515Z AUTO 27008KT 10SM BKN020 OVC024 27/22 A3000 RMK AO2 T02690223
KMFV 131455Z AUTO 23005KT 10SM BKN020 BKN024 BKN028 27/23 A3000 RMK AO2 T02700228
KMFV 131435Z AUTO 26008KT 10SM BKN020 BKN026 27/22 A3000 RMK AO2 T02690222
KMFV 131415Z AUTO 23006KT 10SM SCT020 SCT025 27/22 A3000 RMK AO2 T02690223
KMFV 131355Z AUTO 24006KT 10SM BKN018 BKN027 26/22 A3000 RMK AO2 T02620224
KMFV 131335Z AUTO 26007KT 10SM BKN016 26/22 A3000 RMK AO2 T02570224
KMFV 131315Z AUTO 28007KT 10SM SCT016 SCT110 27/23 A2999 RMK AO2 T02650230
KMFV 131255Z AUTO 26004KT 10SM SCT110 26/23 A2999 RMK AO2 T02610231
KMFV 131235Z AUTO 28004KT 10SM CLR 26/23 A2998 RMK AO2 T02550233
KMFV 131215Z AUTO 29005KT 10SM CLR 26/24 A2997 RMK AO2 T02580237
KMFV 131155Z AUTO 28003KT 10SM CLR 25/24 A2996 RMK AO2 7//// T02450236 10245 20226
KMFV 131135Z AUTO 00000KT 10SM CLR 24/24 A2996 RMK AO2 T02400235
KMFV 131115Z AUTO 25003KT 10SM SCT120 24/23 A2996 RMK AO2 T02380233
KMFV 131055Z AUTO 00000KT 10SM SCT120 24/23 A2996 RMK AO2 LTG DSNT S T02380232
KMFV 131035Z AUTO 30003KT 10SM SCT017 SCT034 BKN120 24/23 A2997 RMK AO2 T02370232
KMFV 131015Z AUTO 29005KT 7SM -DZ BKN014 BKN020 OVC034 24/23 A2997 RMK AO2 LTG DSNT N T02370233
KMFV 130955Z AUTO 00000KT 10SM SCT013 BKN020 BKN029 24/23 A2998 RMK AO2 T02380233
KMFV 130935Z AUTO 00000KT 10SM SCT013 SCT018 BKN025 24/23 A2998 RMK AO2 LTG DSNT SE T02370232
KMFV 130915Z AUTO 26004KT 10SM SCT013 SCT023 23/23 A2998 RMK AO2 T02340231
KMFV 130855Z AUTO 28004KT 7SM SCT010 23/23 A2998 RMK AO2 T02320230
KMFV 130835Z AUTO 00000KT 5SM BR CLR 23/23 A2998 RMK AO2 T02310229
KMFV 130815Z AUTO 00000KT 5SM BR SCT022 SCT028 23/23 A2998 RMK AO2 T02300227
KMFV 130755Z AUTO 00000KT 5SM BR SCT006 SCT011 BKN024 23/23 A2998 RMK AO2 T02310229